Time;durP1;ratioP1;P1;durP2;ratioP2;P2;SDS_P1;SDS_P2;PMS_P1;PMS_P2;Temp;Humidity;BMP_temperature;BMP_pressure;BME280_temperature;BME280_humidity;BME280_pressure;Samples;Min_cycle;Max_cycle;Signal;HPM_P1;HPM_P2
2023/03/11 00:01:50;;;;;;;0.45;0.45;;;2.10;99.90;;;;;;5054623;28;20423;-71
2023/03/11 00:04:16;;;;;;;0.20;0.20;;;2.00;99.90;;;;;;5055192;28;20033;-71
2023/03/11 00:06:41;;;;;;;0.20;0.20;;;2.10;99.90;;;;;;5054608;28;20017;-71
2023/03/11 00:09:07;;;;;;;0.28;0.28;;;2.00;99.90;;;;;;5055133;28;20462;-71
2023/03/11 00:11:33;;;;;;;1.80;0.85;;;2.00;99.90;;;;;;5054679;28;20021;-71
2023/03/11 00:13:59;;;;;;;0.10;0.10;;;1.90;99.90;;;;;;5054877;28;20028;-71
2023/03/11 00:16:25;;;;;;;7.80;0.88;;;1.90;99.90;;;;;;5053246;28;20033;-71
2023/03/11 00:18:51;;;;;;;0.75;0.68;;;1.80;99.90;;;;;;5054574;28;20466;-71
2023/03/11 00:21:19;;;;;;;0.40;0.40;;;1.90;99.90;;;;;;5054693;28;20032;-71
2023/03/11 00:23:45;;;;;;;2.05;0.90;;;1.90;99.90;;;;;;5054537;28;20489;-71
2023/03/11 00:26:12;;;;;;;0.40;0.40;;;1.80;99.90;;;;;;5053536;28;20116;-71
2023/03/11 00:28:37;;;;;;;0.68;0.68;;;1.80;99.90;;;;;;5054202;28;20048;-70
2023/03/11 00:31:03;;;;;;;0.70;0.65;;;1.80;99.90;;;;;;5053134;28;20029;-72
2023/03/11 00:33:29;;;;;;;1.15;0.77;;;1.80;99.90;;;;;;5054506;28;20196;-70
2023/03/11 00:35:55;;;;;;;0.10;0.10;;;1.80;99.90;;;;;;5054568;28;20025;-71
2023/03/11 00:38:21;;;;;;;0.63;0.63;;;1.80;99.90;;;;;;5054160;28;20440;-71
2023/03/11 00:40:48;;;;;;;0.28;0.22;;;1.80;99.90;;;;;;5054230;28;20040;-71
2023/03/11 00:43:14;;;;;;;0.17;0.17;;;1.90;99.90;;;;;;5086538;28;20025;-71
2023/03/11 00:45:40;;;;;;;0.40;0.40;;;2.00;99.90;;;;;;5052906;28;20100;-71
2023/03/11 00:48:07;;;;;;;0.45;0.45;;;1.90;99.90;;;;;;5052815;28;20107;-71
2023/03/11 00:50:35;;;;;;;0.32;0.32;;;1.90;99.90;;;;;;5036176;28;20025;-70
2023/03/11 00:53:02;;;;;;;3.92;1.02;;;2.00;99.90;;;;;;5053946;28;20052;-70
2023/03/11 00:55:31;;;;;;;2.67;0.82;;;1.90;99.90;;;;;;5086345;28;20021;-70
2023/03/11 00:58:01;;;;;;;0.52;0.52;;;1.90;99.90;;;;;;5036164;28;20036;-70
2023/03/11 01:00:33;;;;;;;0.28;0.28;;;1.90;99.90;;;;;;5052250;28;20032;-71
2023/03/11 01:02:59;;;;;;;0.10;0.10;;;1.90;99.90;;;;;;5052421;28;20060;-70
2023/03/11 01:05:28;;;;;;;0.10;0.10;;;2.00;99.90;;;;;;5054222;28;20021;-71
2023/03/11 01:07:54;;;;;;;0.20;0.20;;;2.10;99.90;;;;;;5052442;28;20095;-70
2023/03/11 01:10:20;;;;;;;2.05;1.00;;;2.10;99.90;;;;;;5085865;28;20025;-71
2023/03/11 01:12:46;;;;;;;0.43;0.43;;;2.10;99.90;;;;;;5053899;28;20099;-71
2023/03/11 01:15:34;;;;;;;5.32;0.70;;;2.00;99.90;;;;;;5053529;28;20512;-71
2023/03/11 01:18:00;;;;;;;5.70;0.70;;;2.10;99.90;;;;;;5053360;28;20047;-72
2023/03/11 01:20:26;;;;;;;1.02;0.95;;;2.00;99.90;;;;;;5052328;28;20033;-71
2023/03/11 01:22:52;;;;;;;0.75;0.60;;;2.00;99.90;;;;;;5035662;28;20492;-71
2023/03/11 01:25:20;;;;;;;6.40;0.85;;;2.00;99.90;;;;;;5052280;28;20032;-71
2023/03/11 01:27:46;;;;;;;0.10;0.10;;;2.00;99.90;;;;;;5053407;28;20021;-72
2023/03/11 01:30:21;;;;;;;0.22;0.22;;;2.10;99.90;;;;;;5052995;28;20032;-71
2023/03/11 01:32:47;;;;;;;0.32;0.32;;;2.10;99.90;;;;;;5053278;28;20044;-70
2023/03/11 01:35:17;;;;;;;0.10;0.10;;;2.10;99.90;;;;;;5053370;28;20025;-71
2023/03/11 01:37:43;;;;;;;0.30;0.30;;;2.00;99.90;;;;;;5052906;28;20036;-71
2023/03/11 01:40:19;;;;;;;0.45;0.35;;;2.10;99.90;;;;;;5053282;28;20029;-70
2023/03/11 01:42:45;;;;;;;0.15;0.15;;;2.00;99.90;;;;;;5051892;28;20037;-71
2023/03/11 01:45:48;;;;;;;3.53;1.65;;;2.00;99.90;;;;;;5051685;28;20106;-71
2023/03/11 01:48:15;;;;;;;0.10;0.10;;;1.90;99.90;;;;;;5051801;28;20063;-71
2023/03/11 01:50:45;;;;;;;2.47;0.57;;;1.90;99.90;;;;;;5051726;28;20056;-70
2023/03/11 01:53:12;;;;;;;5.20;1.98;;;1.80;99.90;;;;;;5051675;28;20086;-71
2023/03/11 01:55:40;;;;;;;2.45;0.68;;;1.90;99.90;;;;;;5051719;28;20517;-71
2023/03/11 01:58:09;;;;;;;0.22;0.22;;;1.80;99.90;;;;;;5051180;28;20447;-71
2023/03/11 02:00:37;;;;;;;7.40;1.40;;;1.80;99.90;;;;;;5051466;28;20048;-71
2023/03/11 02:03:11;;;;;;;0.10;0.10;;;1.80;99.90;;;;;;5053688;28;20029;-70
2023/03/11 02:05:38;;;;;;;0.65;0.65;;;1.80;99.90;;;;;;5051595;28;20034;-70
2023/03/11 02:08:05;;;;;;;4.75;0.77;;;1.80;99.90;;;;;;5051438;28;20386;-71
2023/03/11 02:10:33;;;;;;;0.20;0.20;;;1.80;99.90;;;;;;5084875;28;20036;-70
2023/03/11 02:12:59;;;;;;;13.48;1.40;;;1.80;99.90;;;;;;5051254;28;20397;-71
2023/03/11 02:15:29;;;;;;;0.10;0.10;;;1.80;99.90;;;;;;5051388;28;20492;-71
2023/03/11 02:17:57;;;;;;;2.42;0.45;;;1.80;99.90;;;;;;5051234;28;20488;-71
2023/03/11 02:20:33;;;;;;;0.10;0.10;;;1.90;99.90;;;;;;5033107;28;20032;-71
2023/03/11 02:23:00;;;;;;;0.10;0.10;;;1.90;99.90;;;;;;5050990;28;20109;-71
2023/03/11 02:25:58;;;;;;;19.05;1.15;;;1.80;99.90;;;;;;5051146;28;20071;-70
2023/03/11 02:28:25;;;;;;;0.10;0.10;;;1.80;99.90;;;;;;5044706;28;20170;-71
2023/03/11 02:30:52;;;;;;;0.28;0.28;;;1.80;99.90;;;;;;5052887;28;20412;-71
2023/03/11 02:33:19;;;;;;;1.25;0.50;;;1.80;99.90;;;;;;5051328;28;20086;-71
2023/03/11 02:35:46;;;;;;;1.48;1.10;;;1.80;99.90;;;;;;5051006;28;20021;-71
2023/03/11 02:38:12;;;;;;;0.25;0.25;;;1.70;99.90;;;;;;5052286;28;20064;-71
2023/03/11 02:40:50;;;;;;;0.40;0.38;;;1.70;99.90;;;;;;5084296;28;20032;-71
2023/03/11 02:43:43;;;;;;;1.00;0.45;;;1.70;99.90;;;;;;5050949;28;20036;-71
2023/03/11 02:46:13;;;;;;;3.33;3.13;;;1.60;99.90;;;;;;5050887;28;20022;-71
2023/03/11 02:48:40;;;;;;;0.30;0.30;;;1.60;99.90;;;;;;5052457;28;20025;-70
2023/03/11 02:51:06;;;;;;;8.98;1.85;;;1.60;99.90;;;;;;5054929;28;20070;-71
2023/03/11 02:53:37;;;;;;;0.20;0.20;;;1.60;99.90;;;;;;5055128;28;20021;-71
2023/03/11 02:56:04;;;;;;;7.32;0.77;;;1.60;99.90;;;;;;5055888;28;20045;-71
2023/03/11 02:58:30;;;;;;;0.82;0.38;;;1.50;99.90;;;;;;5088500;28;20116;-71
2023/03/11 03:00:56;;;;;;;2.25;0.70;;;1.50;99.90;;;;;;5088504;28;20062;-71
2023/03/11 03:03:22;;;;;;;3.20;1.58;;;1.50;99.90;;;;;;5055132;28;20468;-70
2023/03/11 03:05:48;;;;;;;1.02;0.98;;;1.50;99.90;;;;;;5055027;28;20120;-70
2023/03/11 03:08:14;;;;;;;0.10;0.10;;;1.50;99.90;;;;;;5056017;28;20025;-70
2023/03/11 03:10:40;;;;;;;0.30;0.30;;;1.50;99.90;;;;;;5088099;28;20036;-71
2023/03/11 03:13:07;;;;;;;0.32;0.30;;;1.50;99.90;;;;;;5055864;28;20029;-71
2023/03/11 03:15:32;;;;;;;12.60;1.23;;;1.50;99.90;;;;;;5088252;28;20021;-70
2023/03/11 03:17:59;;;;;;;0.15;0.15;;;1.60;99.90;;;;;;5088151;28;20057;-70
2023/03/11 03:20:25;;;;;;;0.30;0.30;;;1.60;99.90;;;;;;5054653;28;20489;-71
2023/03/11 03:22:55;;;;;;;0.10;0.10;;;1.60;99.90;;;;;;5038416;28;20051;-71
2023/03/11 03:25:25;;;;;;;0.77;0.77;;;1.60;99.90;;;;;;5054442;28;20029;-71
2023/03/11 03:27:51;;;;;;;0.85;0.57;;;1.70;99.90;;;;;;5054196;28;20041;-71
2023/03/11 03:30:18;;;;;;;2.42;1.08;;;1.60;99.90;;;;;;5054391;28;20029;-70
2023/03/11 03:32:44;;;;;;;0.10;0.10;;;1.60;99.90;;;;;;5054373;28;20060;-71
2023/03/11 03:35:13;;;;;;;0.32;0.32;;;1.50;99.90;;;;;;5054225;28;20137;-71
2023/03/11 03:38:05;;;;;;;0.20;0.20;;;1.50;99.90;;;;;;5053916;28;20041;-71
2023/03/11 03:40:32;;;;;;;0.20;0.20;;;1.60;99.90;;;;;;5054073;28;20064;-71
2023/03/11 03:43:02;;;;;;;0.10;0.10;;;1.70;99.90;;;;;;5053946;28;20033;-71
2023/03/11 03:45:29;;;;;;;0.10;0.10;;;1.80;99.90;;;;;;5054349;28;20025;-71
2023/03/11 03:47:56;;;;;;;0.10;0.10;;;2.00;99.90;;;;;;5037790;28;20040;-71
2023/03/11 03:50:24;;;;;;;0.10;0.10;;;1.90;99.90;;;;;;5054223;28;20489;-71
2023/03/11 03:52:52;;;;;;;0.10;0.10;;;2.00;99.90;;;;;;5053835;28;20028;-71
2023/03/11 03:55:20;;;;;;;0.10;0.10;;;2.00;99.90;;;;;;5053613;28;20021;-71
2023/03/11 03:57:46;;;;;;;0.10;0.10;;;1.80;99.90;;;;;;5053756;28;20035;-71
2023/03/11 04:00:14;;;;;;;0.10;0.10;;;1.60;99.90;;;;;;5053674;28;20021;-71
2023/03/11 04:02:40;;;;;;;0.40;0.40;;;1.40;99.90;;;;;;5055001;28;20473;-71
2023/03/11 04:05:12;;;;;;;0.10;0.10;;;1.40;99.90;;;;;;5055273;28;20029;-71
2023/03/11 04:07:40;;;;;;;0.10;0.10;;;1.50;99.90;;;;;;5053579;28;20028;-71
2023/03/11 04:10:06;;;;;;;0.00;0.00;;;1.40;99.90;;;;;;5087202;28;20568;-71
2023/03/11 04:12:33;;;;;;;0.10;0.10;;;1.50;99.90;;;;;;5054784;28;20056;-71
2023/03/11 04:14:59;;;;;;;0.10;0.10;;;1.60;99.90;;;;;;5053551;28;20059;-71
2023/03/11 04:17:26;;;;;;;0.10;0.10;;;1.80;99.90;;;;;;5054658;28;20052;-71
2023/03/11 04:19:54;;;;;;;0.40;0.40;;;1.80;99.90;;;;;;5053561;28;20095;-71
2023/03/11 04:22:20;;;;;;;0.38;0.38;;;1.50;99.90;;;;;;5053395;28;20021;-71
2023/03/11 04:24:46;;;;;;;0.30;0.30;;;1.40;99.90;;;;;;5086775;28;20025;-71
2023/03/11 04:27:12;;;;;;;0.10;0.10;;;1.30;99.90;;;;;;5053103;28;20025;-71
2023/03/11 04:29:38;;;;;;;0.10;0.10;;;1.50;99.90;;;;;;5053239;28;20025;-71
2023/03/11 04:32:05;;;;;;;0.10;0.10;;;1.60;99.90;;;;;;5052950;28;20393;-71
2023/03/11 04:34:32;;;;;;;0.10;0.10;;;1.70;99.90;;;;;;5086877;28;20474;-71
2023/03/11 04:36:58;;;;;;;0.10;0.10;;;1.70;99.90;;;;;;5053184;28;20122;-71
2023/03/11 04:39:28;;;;;;;0.10;0.10;;;1.60;99.90;;;;;;5052555;28;20033;-71
2023/03/11 04:41:55;;;;;;;0.10;0.10;;;1.30;99.90;;;;;;5052933;28;20517;-71
2023/03/11 04:44:24;;;;;;;4.95;1.30;;;1.20;99.90;;;;;;5086551;28;20021;-71
2023/03/11 04:46:50;;;;;;;0.95;0.73;;;1.20;99.90;;;;;;5053167;28;20473;-70
2023/03/11 04:49:16;;;;;;;0.85;0.70;;;1.10;99.90;;;;;;5052468;28;20021;-70
2023/03/11 04:51:42;;;;;;;0.10;0.10;;;1.00;99.90;;;;;;5052995;28;20021;-71
2023/03/11 04:54:09;;;;;;;0.30;0.30;;;1.00;99.90;;;;;;5052481;28;20039;-71
2023/03/11 04:56:35;;;;;;;0.77;0.63;;;1.00;99.90;;;;;;5052902;28;20028;-71
2023/03/11 04:59:02;;;;;;;1.35;0.95;;;1.00;99.90;;;;;;5052394;28;20378;-71
2023/03/11 05:01:30;;;;;;;0.35;0.35;;;1.00;99.90;;;;;;5086183;28;20067;-70
2023/03/11 05:03:59;;;;;;;0.22;0.22;;;1.10;99.90;;;;;;5052465;28;20029;-71
2023/03/11 05:06:25;;;;;;;0.20;0.20;;;1.10;99.90;;;;;;5052391;28;20032;-71
2023/03/11 05:08:52;;;;;;;0.10;0.10;;;1.10;99.90;;;;;;5035960;28;20108;-71
2023/03/11 05:11:18;;;;;;;0.30;0.30;;;1.10;99.90;;;;;;5051474;28;20887;-71
2023/03/11 05:13:46;;;;;;;0.17;0.17;;;1.10;99.90;;;;;;5086135;28;20057;-71
2023/03/11 05:16:12;;;;;;;0.10;0.10;;;1.20;99.90;;;;;;5052247;28;20021;-71
2023/03/11 05:18:38;;;;;;;0.70;0.70;;;1.20;99.90;;;;;;5085781;28;20053;-71
2023/03/11 05:21:05;;;;;;;0.20;0.20;;;1.20;99.90;;;;;;5051938;28;20031;-71
2023/03/11 05:23:32;;;;;;;0.20;0.20;;;1.20;99.90;;;;;;5052090;28;20029;-71
2023/03/11 05:25:59;;;;;;;3.10;1.45;;;1.20;99.90;;;;;;5052383;28;20447;-70
2023/03/11 05:28:25;;;;;;;0.10;0.10;;;1.20;99.90;;;;;;5051850;28;20120;-71
2023/03/11 05:30:52;;;;;;;0.10;0.10;;;1.30;99.90;;;;;;5052244;28;20430;-70
2023/03/11 05:33:18;;;;;;;0.15;0.15;;;1.20;99.90;;;;;;5051676;28;20036;-71
2023/03/11 05:35:45;;;;;;;0.10;0.10;;;1.10;99.90;;;;;;5052028;28;20096;-71
2023/03/11 05:38:11;;;;;;;0.10;0.10;;;1.00;99.90;;;;;;5053051;28;20572;-71
2023/03/11 05:40:37;;;;;;;0.73;0.73;;;1.00;99.90;;;;;;5053156;28;20499;-71
2023/03/11 05:43:03;;;;;;;0.10;0.10;;;1.00;99.90;;;;;;5051875;28;20036;-71
2023/03/11 05:45:33;;;;;;;0.70;0.65;;;1.00;99.90;;;;;;5085225;28;20102;-71
2023/03/11 05:48:00;;;;;;;0.82;0.73;;;0.90;99.90;;;;;;5051888;28;20424;-71
2023/03/11 05:50:26;;;;;;;0.20;0.20;;;0.90;99.90;;;;;;5052566;28;20033;-72
2023/03/11 05:52:52;;;;;;;0.10;0.10;;;0.90;99.90;;;;;;5032028;28;20021;-73
2023/03/11 05:55:20;;;;;;;1.02;0.88;;;0.80;99.90;;;;;;5045369;28;20120;-72
2023/03/11 05:57:50;;;;;;;5.43;0.65;;;0.80;99.90;;;;;;5051529;28;20032;-73
2023/03/11 06:00:17;;;;;;;2.75;0.70;;;0.80;99.90;;;;;;5052917;28;20469;-73
2023/03/11 06:02:48;;;;;;;0.10;0.10;;;0.70;99.90;;;;;;5051411;28;20108;-72
2023/03/11 06:05:16;;;;;;;0.10;0.10;;;0.70;99.90;;;;;;5050804;28;20481;-72
2023/03/11 06:07:44;;;;;;;0.10;0.10;;;0.80;99.90;;;;;;5052119;28;20068;-72
2023/03/11 06:10:11;;;;;;;0.15;0.15;;;1.00;99.90;;;;;;5051448;28;20013;-72
2023/03/11 06:12:37;;;;;;;0.13;0.13;;;1.00;99.90;;;;;;5051428;28;20043;-72
2023/03/11 06:15:21;;;;;;;0.10;0.10;;;1.00;99.90;;;;;;5051708;28;20090;-72
2023/03/11 06:17:47;;;;;;;0.10;0.10;;;0.90;99.90;;;;;;5051391;28;20481;-73
2023/03/11 06:20:13;;;;;;;0.10;0.10;;;0.80;99.90;;;;;;5051028;28;20024;-72
2023/03/11 06:22:39;;;;;;;0.10;0.10;;;0.90;99.90;;;;;;5051067;28;20044;-71
2023/03/11 06:25:06;;;;;;;0.68;0.68;;;0.80;99.90;;;;;;5084865;28;20059;-71
2023/03/11 06:27:32;;;;;;;0.85;0.85;;;0.80;99.90;;;;;;5034803;28;20029;-71
2023/03/11 06:29:58;;;;;;;0.20;0.20;;;0.80;99.90;;;;;;5050943;28;20036;-71
2023/03/11 06:32:25;;;;;;;0.20;0.20;;;0.80;99.90;;;;;;5051264;28;20452;-71
2023/03/11 06:34:52;;;;;;;0.10;0.10;;;0.90;99.90;;;;;;5050923;28;20029;-71
2023/03/11 06:37:19;;;;;;;0.10;0.10;;;1.10;99.90;;;;;;5059560;28;20029;-71
2023/03/11 06:39:45;;;;;;;0.10;0.10;;;1.20;99.90;;;;;;5034250;28;20175;-71
2023/03/11 06:42:19;;;;;;;0.10;0.10;;;1.30;99.90;;;;;;5051192;28;20021;-72
2023/03/11 06:44:47;;;;;;;0.20;0.20;;;1.40;99.90;;;;;;5084948;28;20036;-71
2023/03/11 06:47:14;;;;;;;0.10;0.10;;;1.50;99.90;;;;;;5052270;28;20025;-72
2023/03/11 06:49:41;;;;;;;3.20;2.08;;;1.50;99.90;;;;;;5050778;28;20144;-72
2023/03/11 06:52:08;;;;;;;0.10;0.10;;;1.60;99.90;;;;;;5050950;28;20433;-71
2023/03/11 06:54:34;;;;;;;0.10;0.10;;;1.70;99.90;;;;;;5052278;28;20037;-72
2023/03/11 06:57:01;;;;;;;0.10;0.10;;;1.60;99.90;;;;;;5051000;28;20021;-71
2023/03/11 06:59:27;;;;;;;0.47;0.47;;;1.80;99.90;;;;;;5050792;28;20063;-71
2023/03/11 07:01:54;;;;;;;0.00;0.00;;;1.70;99.90;;;;;;5050933;28;20025;-71
2023/03/11 07:04:20;;;;;;;0.10;0.10;;;1.90;99.90;;;;;;5050513;28;20067;-71
2023/03/11 07:06:47;;;;;;;0.20;0.20;;;2.00;99.90;;;;;;5050912;28;20121;-71
2023/03/11 07:09:18;;;;;;;0.30;0.30;;;2.00;99.90;;;;;;5084363;28;20061;-71
2023/03/11 07:11:45;;;;;;;0.10;0.10;;;2.00;99.90;;;;;;5052241;28;20021;-71
2023/03/11 07:14:15;;;;;;;0.10;0.10;;;1.90;99.90;;;;;;5050925;28;20496;-72
2023/03/11 07:16:45;;;;;;;0.10;0.10;;;2.00;99.90;;;;;;5050788;28;20116;-71
2023/03/11 07:19:19;;;;;;;0.10;0.10;;;2.10;99.90;;;;;;5035446;28;20040;-72
2023/03/11 07:21:45;;;;;;;0.00;0.00;;;2.20;99.90;;;;;;5051943;28;20029;-71
2023/03/11 07:24:13;;;;;;;0.10;0.10;;;2.40;99.90;;;;;;5052092;28;20052;-72
2023/03/11 07:26:39;;;;;;;0.10;0.10;;;2.40;99.90;;;;;;5051683;28;20479;-71
2023/03/11 07:29:05;;;;;;;0.20;0.20;;;2.60;99.90;;;;;;5050580;28;20477;-71
2023/03/11 07:31:33;;;;;;;0.57;0.57;;;2.70;99.90;;;;;;5051587;28;20025;-71
2023/03/11 07:34:01;;;;;;;0.00;0.00;;;2.90;99.90;;;;;;5052329;28;20029;-71
2023/03/11 07:36:28;;;;;;;0.10;0.10;;;3.10;99.90;;;;;;5055592;28;20424;-71
2023/03/11 07:38:58;;;;;;;0.10;0.10;;;3.00;99.90;;;;;;5055336;28;20039;-71
2023/03/11 07:41:25;;;;;;;0.00;0.00;;;3.00;99.90;;;;;;5055628;28;20079;-71
2023/03/11 07:43:54;;;;;;;0.20;0.20;;;2.90;99.90;;;;;;5055512;28;20021;-71
2023/03/11 07:46:21;;;;;;;0.00;0.00;;;2.80;99.90;;;;;;5055095;28;20036;-71
2023/03/11 07:48:48;;;;;;;0.00;0.00;;;2.70;99.90;;;;;;5055430;28;20029;-71
2023/03/11 07:51:23;;;;;;;0.70;0.43;;;2.90;99.90;;;;;;5055554;28;20053;-71
2023/03/11 07:53:51;;;;;;;0.22;0.22;;;3.30;99.90;;;;;;5055342;28;20086;-72
2023/03/11 07:56:18;;;;;;;9.95;1.48;;;3.10;99.90;;;;;;5054128;28;20100;-72
2023/03/11 07:58:44;;;;;;;0.30;0.30;;;2.90;99.90;;;;;;5053745;28;20442;-72
2023/03/11 08:01:16;;;;;;;1.42;0.77;;;3.00;99.90;;;;;;5050132;28;20108;-71
2023/03/11 08:03:45;;;;;;;0.10;0.10;;;3.00;99.90;;;;;;5056487;28;20537;-71
2023/03/11 08:06:16;;;;;;;0.08;0.08;;;3.00;99.90;;;;;;5060580;28;20025;-71
2023/03/11 08:08:43;;;;;;;0.63;0.63;;;3.30;99.90;;;;;;5048673;28;20028;-71
2023/03/11 08:11:11;;;;;;;0.30;0.30;;;3.40;99.90;;;;;;5055087;28;20033;-71
2023/03/11 08:13:38;;;;;;;1.60;1.38;;;3.50;99.90;;;;;;5052537;28;20048;-71
2023/03/11 08:16:05;;;;;;;0.30;0.30;;;3.70;99.90;;;;;;5055067;28;20017;-71
2023/03/11 08:18:32;;;;;;;0.10;0.10;;;3.60;99.90;;;;;;5064168;28;20041;-70
2023/03/11 08:20:58;;;;;;;0.60;0.60;;;3.80;99.90;;;;;;5050252;28;20058;-71
2023/03/11 08:23:24;;;;;;;1.10;1.02;;;4.30;99.90;;;;;;5058660;28;20112;-72
2023/03/11 08:25:50;;;;;;;0.08;0.08;;;4.60;99.90;;;;;;5044921;28;20063;-71
2023/03/11 08:28:15;;;;;;;0.00;0.00;;;4.40;99.90;;;;;;5054937;28;20029;-70
2023/03/11 08:30:41;;;;;;;0.32;0.32;;;4.80;99.90;;;;;;5089275;28;20397;-72
2023/03/11 08:33:07;;;;;;;0.73;0.73;;;5.00;99.90;;;;;;5061469;28;20191;-72
2023/03/11 08:35:33;;;;;;;0.50;0.47;;;4.80;99.90;;;;;;5061851;28;20035;-71
2023/03/11 08:37:58;;;;;;;0.60;0.60;;;4.70;99.90;;;;;;5059528;28;20044;-71
2023/03/11 08:40:24;;;;;;;0.00;0.00;;;4.70;99.90;;;;;;5057760;28;20049;-71
2023/03/11 08:42:50;;;;;;;0.10;0.10;;;4.70;99.90;;;;;;5060396;28;20112;-71
2023/03/11 08:45:16;;;;;;;0.08;0.08;;;4.80;99.90;;;;;;5067921;28;20583;-71
2023/03/11 08:47:41;;;;;;;0.90;0.90;;;5.00;99.90;;;;;;5060294;28;20048;-71
2023/03/11 08:50:12;;;;;;;0.10;0.10;;;5.00;99.90;;;;;;5059630;28;20048;-72
2023/03/11 08:52:38;;;;;;;0.17;0.17;;;5.20;99.90;;;;;;5052652;28;20473;-72
2023/03/11 08:55:04;;;;;;;0.38;0.25;;;5.60;99.90;;;;;;5061491;28;20081;-72
2023/03/11 08:57:31;;;;;;;0.10;0.10;;;5.90;99.90;;;;;;5063723;28;20083;-71
2023/03/11 08:59:57;;;;;;;1.40;1.30;;;5.90;99.90;;;;;;5059512;28;20044;-71
2023/03/11 09:02:26;;;;;;;0.65;0.65;;;6.00;99.90;;;;;;5054068;28;20052;-72
2023/03/11 09:04:52;;;;;;;0.10;0.10;;;6.20;99.90;;;;;;5041622;28;20535;-71
2023/03/11 09:07:17;;;;;;;0.22;0.22;;;6.40;99.90;;;;;;5063804;28;20020;-72
2023/03/11 09:09:43;;;;;;;0.10;0.10;;;6.40;99.90;;;;;;5059282;28;20039;-72
2023/03/11 09:12:12;;;;;;;0.00;0.00;;;6.20;99.90;;;;;;5046751;28;20044;-71
2023/03/11 09:14:42;;;;;;;0.10;0.10;;;6.30;99.90;;;;;;5048985;28;20028;-71
2023/03/11 09:17:10;;;;;;;0.57;0.57;;;6.70;99.90;;;;;;5049175;28;20036;-71
2023/03/11 09:19:37;;;;;;;0.30;0.30;;;6.80;99.90;;;;;;5055427;28;20029;-71
2023/03/11 09:22:03;;;;;;;0.10;0.10;;;6.50;99.10;;;;;;5045872;28;20375;-72
2023/03/11 09:24:33;;;;;;;0.30;0.30;;;6.40;99.90;;;;;;5054502;28;20032;-71
2023/03/11 09:26:59;;;;;;;0.65;0.47;;;6.40;98.20;;;;;;5052553;28;20021;-72
2023/03/11 09:29:25;;;;;;;0.10;0.10;;;6.50;99.30;;;;;;5054146;28;20025;-71
2023/03/11 09:31:51;;;;;;;2.33;0.28;;;6.70;98.30;;;;;;5056377;28;20066;-70
2023/03/11 09:34:17;;;;;;;0.10;0.10;;;6.70;99.70;;;;;;5063393;28;20490;-71
2023/03/11 09:36:43;;;;;;;0.10;0.10;;;7.20;99.90;;;;;;5052918;28;20035;-71
2023/03/11 09:39:09;;;;;;;0.10;0.10;;;7.50;99.70;;;;;;5066307;28;20045;-71
2023/03/11 09:41:49;;;;;;;0.00;0.00;;;7.50;99.20;;;;;;5047852;28;20170;-71
2023/03/11 09:44:19;;;;;;;0.00;0.00;;;7.80;99.10;;;;;;5060232;28;20031;-72
2023/03/11 09:47:00;;;;;;;0.10;0.10;;;7.90;99.00;;;;;;5053629;28;20013;-71
2023/03/11 09:49:50;;;;;;;0.17;0.17;;;7.50;99.50;;;;;;5063831;28;20541;-71
2023/03/11 09:52:55;;;;;;;0.00;0.00;;;7.70;98.10;;;;;;5076543;28;20033;-71
2023/03/11 09:55:24;;;;;;;0.10;0.10;;;7.80;97.70;;;;;;5074313;28;20097;-71
2023/03/11 09:57:51;;;;;;;2.70;0.90;;;7.90;98.10;;;;;;5070128;28;20071;-70
2023/03/11 10:00:19;;;;;;;0.10;0.10;;;7.10;96.70;;;;;;5081577;28;20478;-71
2023/03/11 10:02:45;;;;;;;1.17;0.75;;;6.90;98.10;;;;;;5052650;28;20493;-71
2023/03/11 10:05:28;;;;;;;0.10;0.10;;;7.00;98.40;;;;;;5060631;28;20035;-72
2023/03/11 10:08:17;;;;;;;0.10;0.10;;;7.40;98.40;;;;;;5058400;28;20078;-71
2023/03/11 10:10:50;;;;;;;26.30;9.73;;;7.90;97.20;;;;;;5050716;28;20112;-71
2023/03/11 10:13:40;;;;;;;0.75;0.75;;;7.90;96.60;;;;;;5087841;28;20021;-71
2023/03/11 10:16:09;;;;;;;0.03;0.03;;;7.10;96.90;;;;;;5049861;28;20029;-71
2023/03/11 10:18:40;;;;;;;1.75;0.52;;;7.40;97.80;;;;;;5053865;28;20400;-72
2023/03/11 10:21:30;;;;;;;4.28;0.52;;;7.10;97.60;;;;;;5059293;28;20021;-71
2023/03/11 10:24:06;;;;;;;0.10;0.10;;;7.40;98.10;;;;;;5076530;28;20029;-70
2023/03/11 10:26:40;;;;;;;17.38;1.17;;;8.20;97.50;;;;;;5048628;28;20025;-71
2023/03/11 10:29:26;;;;;;;0.13;0.13;;;8.00;97.10;;;;;;5050427;28;20029;-70
2023/03/11 10:31:52;;;;;;;11.35;0.73;;;7.80;96.60;;;;;;5052145;28;20032;-71
2023/03/11 10:34:20;;;;;;;0.10;0.10;;;8.00;97.30;;;;;;5047501;28;20449;-72
2023/03/11 10:37:10;;;;;;;2.40;0.35;;;8.30;96.40;;;;;;5046650;28;20127;-72
2023/03/11 10:39:37;;;;;;;0.20;0.20;;;8.60;96.20;;;;;;5050851;28;20036;-72
2023/03/11 10:42:09;;;;;;;0.10;0.10;;;8.20;95.80;;;;;;5052155;28;20369;-71
2023/03/11 10:44:40;;;;;;;0.10;0.10;;;8.50;97.30;;;;;;5041547;28;20104;-71
2023/03/11 10:47:11;;;;;;;0.10;0.10;;;8.60;95.70;;;;;;5052049;28;20484;-71
2023/03/11 10:49:37;;;;;;;0.10;0.10;;;8.30;95.40;;;;;;5052350;28;20029;-72
2023/03/11 10:52:03;;;;;;;1.40;1.30;;;8.40;95.80;;;;;;5052162;28;20108;-71
2023/03/11 10:54:34;;;;;;;0.10;0.10;;;8.60;95.40;;;;;;5051854;28;20082;-71
2023/03/11 10:57:24;;;;;;;0.10;0.10;;;9.10;95.60;;;;;;5052102;28;20033;-71
2023/03/11 10:59:58;;;;;;;2.38;0.47;;;9.40;95.70;;;;;;5040822;28;20045;-72
2023/03/11 11:02:28;;;;;;;0.10;0.10;;;9.70;95.30;;;;;;5047653;28;20078;-72
2023/03/11 11:05:21;;;;;;;0.10;0.10;;;9.70;94.20;;;;;;5051901;28;20044;-71
2023/03/11 11:07:49;;;;;;;0.10;0.10;;;9.50;94.50;;;;;;5051807;28;20027;-71
2023/03/11 11:10:27;;;;;;;0.50;0.50;;;9.90;95.50;;;;;;5048633;28;20108;-71
2023/03/11 11:12:53;;;;;;;0.20;0.20;;;9.60;94.30;;;;;;5055820;28;20470;-71
2023/03/11 11:15:27;;;;;;;0.10;0.10;;;8.80;94.90;;;;;;5038024;28;20427;-71
2023/03/11 11:17:55;;;;;;;9.27;1.35;;;8.90;95.00;;;;;;5054306;28;20074;-71
2023/03/11 11:20:23;;;;;;;0.20;0.20;;;8.90;94.00;;;;;;5055847;28;20064;-71
2023/03/11 11:22:54;;;;;;;1.17;0.40;;;9.00;95.10;;;;;;5055401;28;20040;-72
2023/03/11 11:25:35;;;;;;;0.20;0.20;;;9.50;94.10;;;;;;5054319;28;20434;-71
2023/03/11 11:28:21;;;;;;;0.38;0.38;;;9.60;93.60;;;;;;5052332;28;20029;-71
2023/03/11 11:30:55;;;;;;;0.10;0.10;;;9.50;93.20;;;;;;5056146;28;20059;-71
2023/03/11 11:33:25;;;;;;;0.10;0.10;;;9.60;92.30;;;;;;5055374;28;20091;-72
2023/03/11 11:35:54;;;;;;;5.22;2.58;;;9.20;93.60;;;;;;5054396;28;20100;-71
2023/03/11 11:38:25;;;;;;;0.20;0.20;;;9.50;92.80;;;;;;5054900;28;20069;-71
2023/03/11 11:40:54;;;;;;;0.10;0.10;;;9.50;93.50;;;;;;5048122;28;20024;-72
2023/03/11 11:43:51;;;;;;;1.77;0.20;;;9.50;92.40;;;;;;5054011;28;20104;-71
2023/03/11 11:46:29;;;;;;;0.10;0.10;;;10.40;92.60;;;;;;5065072;28;20031;-71
2023/03/11 11:48:58;;;;;;;0.10;0.10;;;11.40;90.10;;;;;;5050876;28;20025;-71
2023/03/11 11:51:30;;;;;;;14.70;3.03;;;12.60;90.00;;;;;;5044291;28;20056;-72
2023/03/11 11:54:04;;;;;;;0.98;0.43;;;13.20;88.70;;;;;;5053338;28;20375;-72
2023/03/11 11:56:29;;;;;;;0.10;0.10;;;14.40;86.50;;;;;;5053597;28;20416;-71
2023/03/11 11:58:55;;;;;;;0.22;0.22;;;12.50;88.60;;;;;;5054924;28;20036;-69
2023/03/11 12:01:27;;;;;;;0.00;0.00;;;12.90;88.00;;;;;;5055198;28;20029;-71
2023/03/11 12:04:17;;;;;;;0.00;0.00;;;12.70;87.60;;;;;;5055084;28;20048;-72
2023/03/11 12:07:21;;;;;;;0.35;0.10;;;12.70;87.70;;;;;;5061222;28;20119;-72
2023/03/11 12:09:58;;;;;;;1.77;0.45;;;13.00;86.20;;;;;;5047981;28;20052;-71
2023/03/11 12:12:40;;;;;;;2.88;0.63;;;11.30;89.10;;;;;;5048840;28;20029;-72
2023/03/11 12:15:13;;;;;;;0.10;0.10;;;11.00;87.70;;;;;;5053849;28;20446;-71
2023/03/11 12:17:44;;;;;;;0.10;0.10;;;11.10;88.50;;;;;;5054553;28;20056;-71
2023/03/11 12:20:16;;;;;;;2.67;0.57;;;10.70;90.20;;;;;;5054227;28;20051;-71
2023/03/11 12:22:48;;;;;;;0.05;0.05;;;10.90;90.10;;;;;;5054214;28;20099;-71
2023/03/11 12:25:21;;;;;;;0.20;0.20;;;12.00;90.10;;;;;;5054414;28;20469;-72
2023/03/11 12:27:56;;;;;;;0.00;0.00;;;12.30;87.90;;;;;;5053052;28;20436;-71
2023/03/11 12:30:35;;;;;;;0.85;0.60;;;12.60;87.50;;;;;;5054825;28;20158;-71
2023/03/11 12:33:12;;;;;;;0.10;0.10;;;12.50;86.90;;;;;;5052921;28;20477;-71
2023/03/11 12:35:38;;;;;;;11.80;0.63;;;12.40;86.60;;;;;;5054362;28;20025;-71
2023/03/11 12:38:33;;;;;;;0.00;0.00;;;12.60;85.70;;;;;;5086159;28;20020;-71
2023/03/11 12:41:26;;;;;;;0.05;0.05;;;12.70;85.60;;;;;;5052965;28;20041;-71
2023/03/11 12:43:52;;;;;;;0.47;0.43;;;12.90;84.10;;;;;;5051069;28;20044;-72
2023/03/11 12:46:18;;;;;;;0.10;0.10;;;13.20;83.20;;;;;;5045829;28;20045;-72
2023/03/11 12:48:45;;;;;;;0.32;0.30;;;14.10;82.70;;;;;;5053074;28;20021;-71
2023/03/11 12:51:37;;;;;;;0.22;0.22;;;13.70;84.20;;;;;;5042479;28;20025;-72
2023/03/11 12:54:19;;;;;;;1.55;0.47;;;13.70;83.50;;;;;;5072037;28;20488;-72
2023/03/11 12:56:53;;;;;;;0.30;0.30;;;14.20;82.20;;;;;;5055828;28;20118;-72
2023/03/11 12:59:56;;;;;;;0.13;0.13;;;14.70;81.60;;;;;;5057018;28;20032;-72
2023/03/11 13:02:46;;;;;;;0.32;0.22;;;17.20;81.20;;;;;;5030338;28;20512;-71
2023/03/11 13:05:36;;;;;;;0.00;0.00;;;18.40;76.90;;;;;;5058649;28;20047;-72
2023/03/11 13:08:23;;;;;;;0.00;0.00;;;19.00;75.30;;;;;;5046671;28;20082;-73
2023/03/11 13:10:53;;;;;;;0.20;0.20;;;18.70;74.40;;;;;;5048816;28;20080;-72